sensor_id;sensor_type;location;lat;lon;timestamp;P1;durP1;ratioP1;P2;durP2;ratioP2
19778;SDS011;10049;59.306;18.090;2023-11-19T00:02:23;0.90;;;0.77;;
19778;SDS011;10049;59.306;18.090;2023-11-19T00:04:51;0.60;;;0.60;;
19778;SDS011;10049;59.306;18.090;2023-11-19T00:07:18;1.00;;;0.80;;
19778;SDS011;10049;59.306;18.090;2023-11-19T00:09:46;0.60;;;0.60;;
19778;SDS011;10049;59.306;18.090;2023-11-19T00:12:13;1.37;;;0.70;;
19778;SDS011;10049;59.306;18.090;2023-11-19T00:14:43;1.90;;;0.80;;
19778;SDS011;10049;59.306;18.090;2023-11-19T00:17:11;3.20;;;0.73;;
19778;SDS011;10049;59.306;18.090;2023-11-19T00:19:38;0.80;;;0.70;;
19778;SDS011;10049;59.306;18.090;2023-11-19T00:22:06;0.93;;;0.67;;
19778;SDS011;10049;59.306;18.090;2023-11-19T00:24:36;0.60;;;0.60;;
19778;SDS011;10049;59.306;18.090;2023-11-19T00:27:05;1.43;;;0.70;;
19778;SDS011;10049;59.306;18.090;2023-11-19T00:29:33;0.67;;;0.67;;
19778;SDS011;10049;59.306;18.090;2023-11-19T00:32:03;0.70;;;0.50;;
19778;SDS011;10049;59.306;18.090;2023-11-19T00:34:33;0.60;;;0.60;;
19778;SDS011;10049;59.306;18.090;2023-11-19T00:37:00;0.70;;;0.67;;
19778;SDS011;10049;59.306;18.090;2023-11-19T00:39:29;0.60;;;0.60;;
19778;SDS011;10049;59.306;18.090;2023-11-19T00:41:57;0.73;;;0.70;;
19778;SDS011;10049;59.306;18.090;2023-11-19T00:44:25;1.10;;;0.90;;
19778;SDS011;10049;59.306;18.090;2023-11-19T00:46:53;1.90;;;0.67;;
19778;SDS011;10049;59.306;18.090;2023-11-19T00:49:22;1.30;;;0.60;;
19778;SDS011;10049;59.306;18.090;2023-11-19T00:51:50;0.60;;;0.60;;
19778;SDS011;10049;59.306;18.090;2023-11-19T00:54:18;1.60;;;0.77;;
19778;SDS011;10049;59.306;18.090;2023-11-19T00:56:46;1.07;;;0.70;;
19778;SDS011;10049;59.306;18.090;2023-11-19T00:59:13;0.97;;;0.70;;
19778;SDS011;10049;59.306;18.090;2023-11-19T01:01:41;1.60;;;0.80;;
19778;SDS011;10049;59.306;18.090;2023-11-19T01:04:13;0.80;;;0.80;;
19778;SDS011;10049;59.306;18.090;2023-11-19T01:06:42;0.80;;;0.70;;
19778;SDS011;10049;59.306;18.090;2023-11-19T01:09:10;1.23;;;0.73;;
19778;SDS011;10049;59.306;18.090;2023-11-19T01:11:39;0.67;;;0.67;;
19778;SDS011;10049;59.306;18.090;2023-11-19T01:14:07;0.70;;;0.70;;
19778;SDS011;10049;59.306;18.090;2023-11-19T01:16:35;0.73;;;0.70;;
19778;SDS011;10049;59.306;18.090;2023-11-19T01:19:02;0.80;;;0.50;;
19778;SDS011;10049;59.306;18.090;2023-11-19T01:21:30;0.70;;;0.70;;
19778;SDS011;10049;59.306;18.090;2023-11-19T01:23:59;0.70;;;0.70;;
19778;SDS011;10049;59.306;18.090;2023-11-19T01:26:30;0.70;;;0.70;;
19778;SDS011;10049;59.306;18.090;2023-11-19T01:28:58;0.77;;;0.77;;
19778;SDS011;10049;59.306;18.090;2023-11-19T01:31:27;0.70;;;0.70;;
19778;SDS011;10049;59.306;18.090;2023-11-19T01:33:55;0.93;;;0.80;;
19778;SDS011;10049;59.306;18.090;2023-11-19T01:36:22;1.03;;;0.83;;
19778;SDS011;10049;59.306;18.090;2023-11-19T01:38:50;0.90;;;0.90;;
19778;SDS011;10049;59.306;18.090;2023-11-19T01:41:19;1.00;;;0.90;;
19778;SDS011;10049;59.306;18.090;2023-11-19T01:43:48;1.17;;;0.80;;
19778;SDS011;10049;59.306;18.090;2023-11-19T01:46:17;1.50;;;0.70;;
19778;SDS011;10049;59.306;18.090;2023-11-19T01:48:46;0.80;;;0.70;;
19778;SDS011;10049;59.306;18.090;2023-11-19T01:51:14;0.90;;;0.90;;
19778;SDS011;10049;59.306;18.090;2023-11-19T01:53:43;0.90;;;0.90;;
19778;SDS011;10049;59.306;18.090;2023-11-19T01:56:11;0.60;;;0.60;;
19778;SDS011;10049;59.306;18.090;2023-11-19T01:58:42;0.87;;;0.87;;
19778;SDS011;10049;59.306;18.090;2023-11-19T02:01:11;0.80;;;0.80;;
19778;SDS011;10049;59.306;18.090;2023-11-19T02:03:39;0.80;;;0.80;;
19778;SDS011;10049;59.306;18.090;2023-11-19T02:06:07;0.90;;;0.90;;
19778;SDS011;10049;59.306;18.090;2023-11-19T02:08:35;2.03;;;1.00;;
19778;SDS011;10049;59.306;18.090;2023-11-19T02:11:04;1.67;;;1.10;;
19778;SDS011;10049;59.306;18.090;2023-11-19T02:13:32;1.20;;;1.10;;
19778;SDS011;10049;59.306;18.090;2023-11-19T02:16:03;1.43;;;1.00;;
19778;SDS011;10049;59.306;18.090;2023-11-19T02:18:31;2.07;;;1.30;;
19778;SDS011;10049;59.306;18.090;2023-11-19T02:20:59;1.23;;;1.13;;
19778;SDS011;10049;59.306;18.090;2023-11-19T02:23:27;1.37;;;1.27;;
19778;SDS011;10049;59.306;18.090;2023-11-19T02:25:59;1.50;;;1.40;;
19778;SDS011;10049;59.306;18.090;2023-11-19T02:28:32;2.87;;;1.67;;
19778;SDS011;10049;59.306;18.090;2023-11-19T02:31:02;2.50;;;1.97;;
19778;SDS011;10049;59.306;18.090;2023-11-19T02:33:30;2.47;;;1.57;;
19778;SDS011;10049;59.306;18.090;2023-11-19T02:35:58;2.77;;;1.80;;
19778;SDS011;10049;59.306;18.090;2023-11-19T02:38:27;2.20;;;1.53;;
19778;SDS011;10049;59.306;18.090;2023-11-19T02:40:56;1.50;;;1.30;;
19778;SDS011;10049;59.306;18.090;2023-11-19T02:43:24;1.77;;;1.20;;
19778;SDS011;10049;59.306;18.090;2023-11-19T02:45:53;1.53;;;1.20;;
19778;SDS011;10049;59.306;18.090;2023-11-19T02:48:21;0.90;;;0.90;;
19778;SDS011;10049;59.306;18.090;2023-11-19T02:50:50;1.03;;;1.00;;
19778;SDS011;10049;59.306;18.090;2023-11-19T02:53:18;1.10;;;1.00;;
19778;SDS011;10049;59.306;18.090;2023-11-19T02:55:47;1.23;;;1.00;;
19778;SDS011;10049;59.306;18.090;2023-11-19T02:58:15;0.80;;;0.80;;
19778;SDS011;10049;59.306;18.090;2023-11-19T03:00:49;1.27;;;1.10;;
19778;SDS011;10049;59.306;18.090;2023-11-19T03:03:25;0.80;;;0.80;;
19778;SDS011;10049;59.306;18.090;2023-11-19T03:05:56;2.60;;;0.80;;
19778;SDS011;10049;59.306;18.090;2023-11-19T03:08:23;1.60;;;1.10;;
19778;SDS011;10049;59.306;18.090;2023-11-19T03:10:53;1.30;;;1.00;;
19778;SDS011;10049;59.306;18.090;2023-11-19T03:13:20;1.10;;;1.00;;
19778;SDS011;10049;59.306;18.090;2023-11-19T03:15:48;1.17;;;1.00;;
19778;SDS011;10049;59.306;18.090;2023-11-19T03:18:16;1.80;;;1.23;;
19778;SDS011;10049;59.306;18.090;2023-11-19T03:20:45;1.43;;;1.00;;
19778;SDS011;10049;59.306;18.090;2023-11-19T03:23:13;3.43;;;1.17;;
19778;SDS011;10049;59.306;18.090;2023-11-19T03:25:40;2.63;;;1.20;;
19778;SDS011;10049;59.306;18.090;2023-11-19T03:28:08;2.93;;;1.23;;
19778;SDS011;10049;59.306;18.090;2023-11-19T03:30:36;1.40;;;1.10;;
19778;SDS011;10049;59.306;18.090;2023-11-19T03:33:04;1.20;;;1.00;;
19778;SDS011;10049;59.306;18.090;2023-11-19T03:35:32;1.57;;;0.97;;
19778;SDS011;10049;59.306;18.090;2023-11-19T03:38:02;1.20;;;1.00;;
19778;SDS011;10049;59.306;18.090;2023-11-19T03:40:30;1.07;;;0.97;;
19778;SDS011;10049;59.306;18.090;2023-11-19T03:42:59;1.00;;;0.90;;
19778;SDS011;10049;59.306;18.090;2023-11-19T03:45:28;1.00;;;1.00;;
19778;SDS011;10049;59.306;18.090;2023-11-19T03:47:56;0.63;;;0.63;;
19778;SDS011;10049;59.306;18.090;2023-11-19T03:50:23;1.63;;;1.10;;
19778;SDS011;10049;59.306;18.090;2023-11-19T03:52:51;0.80;;;0.80;;
19778;SDS011;10049;59.306;18.090;2023-11-19T03:55:20;0.90;;;0.90;;
19778;SDS011;10049;59.306;18.090;2023-11-19T03:57:48;0.70;;;0.70;;
19778;SDS011;10049;59.306;18.090;2023-11-19T04:00:15;0.93;;;0.80;;
19778;SDS011;10049;59.306;18.090;2023-11-19T04:02:45;1.47;;;0.67;;
19778;SDS011;10049;59.306;18.090;2023-11-19T04:05:13;0.70;;;0.70;;
19778;SDS011;10049;59.306;18.090;2023-11-19T04:07:41;0.70;;;0.70;;
19778;SDS011;10049;59.306;18.090;2023-11-19T04:10:09;0.63;;;0.63;;
19778;SDS011;10049;59.306;18.090;2023-11-19T04:12:39;1.20;;;0.70;;
19778;SDS011;10049;59.306;18.090;2023-11-19T04:15:08;0.60;;;0.60;;
19778;SDS011;10049;59.306;18.090;2023-11-19T04:17:35;2.93;;;0.60;;
19778;SDS011;10049;59.306;18.090;2023-11-19T04:20:03;0.63;;;0.60;;
19778;SDS011;10049;59.306;18.090;2023-11-19T04:22:35;1.03;;;0.83;;
19778;SDS011;10049;59.306;18.090;2023-11-19T04:25:05;0.80;;;0.80;;
19778;SDS011;10049;59.306;18.090;2023-11-19T04:27:36;0.83;;;0.70;;
19778;SDS011;10049;59.306;18.090;2023-11-19T04:30:07;0.80;;;0.80;;
19778;SDS011;10049;59.306;18.090;2023-11-19T04:32:36;0.90;;;0.80;;
19778;SDS011;10049;59.306;18.090;2023-11-19T04:35:04;0.93;;;0.80;;
19778;SDS011;10049;59.306;18.090;2023-11-19T04:37:36;0.80;;;0.80;;
19778;SDS011;10049;59.306;18.090;2023-11-19T04:40:04;0.80;;;0.80;;
19778;SDS011;10049;59.306;18.090;2023-11-19T04:42:32;0.70;;;0.70;;
19778;SDS011;10049;59.306;18.090;2023-11-19T04:45:01;1.00;;;0.90;;
19778;SDS011;10049;59.306;18.090;2023-11-19T04:47:32;0.83;;;0.77;;
19778;SDS011;10049;59.306;18.090;2023-11-19T04:50:01;1.23;;;0.77;;
19778;SDS011;10049;59.306;18.090;2023-11-19T04:52:28;1.00;;;0.90;;
19778;SDS011;10049;59.306;18.090;2023-11-19T04:54:56;1.90;;;0.80;;
19778;SDS011;10049;59.306;18.090;2023-11-19T04:57:23;0.80;;;0.80;;
19778;SDS011;10049;59.306;18.090;2023-11-19T04:59:51;2.10;;;1.03;;
19778;SDS011;10049;59.306;18.090;2023-11-19T05:02:17;0.80;;;0.80;;
19778;SDS011;10049;59.306;18.090;2023-11-19T05:04:46;0.60;;;0.60;;
19778;SDS011;10049;59.306;18.090;2023-11-19T05:07:14;3.33;;;0.90;;
19778;SDS011;10049;59.306;18.090;2023-11-19T05:09:41;0.97;;;0.87;;
19778;SDS011;10049;59.306;18.090;2023-11-19T05:12:09;1.00;;;0.90;;
19778;SDS011;10049;59.306;18.090;2023-11-19T05:14:37;1.00;;;0.80;;
19778;SDS011;10049;59.306;18.090;2023-11-19T05:17:05;2.10;;;0.90;;
19778;SDS011;10049;59.306;18.090;2023-11-19T05:19:33;0.80;;;0.80;;
19778;SDS011;10049;59.306;18.090;2023-11-19T05:22:05;1.00;;;0.80;;
19778;SDS011;10049;59.306;18.090;2023-11-19T05:24:33;1.10;;;0.90;;
19778;SDS011;10049;59.306;18.090;2023-11-19T05:27:01;1.10;;;1.00;;
19778;SDS011;10049;59.306;18.090;2023-11-19T05:29:28;1.00;;;0.87;;
19778;SDS011;10049;59.306;18.090;2023-11-19T05:31:57;1.13;;;0.97;;
19778;SDS011;10049;59.306;18.090;2023-11-19T05:34:28;1.07;;;0.90;;
19778;SDS011;10049;59.306;18.090;2023-11-19T05:36:58;1.00;;;0.90;;
19778;SDS011;10049;59.306;18.090;2023-11-19T05:39:27;2.77;;;1.00;;
19778;SDS011;10049;59.306;18.090;2023-11-19T05:41:55;1.37;;;0.97;;
19778;SDS011;10049;59.306;18.090;2023-11-19T05:44:24;1.17;;;1.07;;
19778;SDS011;10049;59.306;18.090;2023-11-19T05:46:52;1.30;;;1.00;;
19778;SDS011;10049;59.306;18.090;2023-11-19T05:49:19;0.97;;;0.87;;
19778;SDS011;10049;59.306;18.090;2023-11-19T05:51:47;1.77;;;1.10;;
19778;SDS011;10049;59.306;18.090;2023-11-19T05:54:15;1.03;;;0.90;;
19778;SDS011;10049;59.306;18.090;2023-11-19T05:56:48;1.33;;;0.80;;
19778;SDS011;10049;59.306;18.090;2023-11-19T05:59:19;0.90;;;0.87;;
19778;SDS011;10049;59.306;18.090;2023-11-19T06:01:49;1.43;;;1.00;;
19778;SDS011;10049;59.306;18.090;2023-11-19T06:04:17;0.80;;;0.80;;
19778;SDS011;10049;59.306;18.090;2023-11-19T06:06:44;1.90;;;1.20;;
19778;SDS011;10049;59.306;18.090;2023-11-19T06:09:12;2.23;;;0.90;;
19778;SDS011;10049;59.306;18.090;2023-11-19T06:11:40;1.37;;;1.00;;
19778;SDS011;10049;59.306;18.090;2023-11-19T06:14:09;0.83;;;0.83;;
19778;SDS011;10049;59.306;18.090;2023-11-19T06:16:36;1.37;;;0.90;;
19778;SDS011;10049;59.306;18.090;2023-11-19T06:19:05;2.67;;;1.00;;
19778;SDS011;10049;59.306;18.090;2023-11-19T06:21:33;1.50;;;0.90;;
19778;SDS011;10049;59.306;18.090;2023-11-19T06:24:02;1.20;;;0.90;;
19778;SDS011;10049;59.306;18.090;2023-11-19T06:26:32;1.70;;;0.97;;
19778;SDS011;10049;59.306;18.090;2023-11-19T06:29:00;1.03;;;0.90;;
19778;SDS011;10049;59.306;18.090;2023-11-19T06:31:29;1.00;;;0.90;;
19778;SDS011;10049;59.306;18.090;2023-11-19T06:33:56;2.30;;;1.00;;
19778;SDS011;10049;59.306;18.090;2023-11-19T06:36:25;2.07;;;1.10;;
19778;SDS011;10049;59.306;18.090;2023-11-19T06:38:55;1.10;;;1.00;;
19778;SDS011;10049;59.306;18.090;2023-11-19T06:41:23;1.17;;;1.07;;
19778;SDS011;10049;59.306;18.090;2023-11-19T06:43:50;1.33;;;1.23;;
19778;SDS011;10049;59.306;18.090;2023-11-19T06:46:18;2.80;;;1.10;;
19778;SDS011;10049;59.306;18.090;2023-11-19T06:48:47;1.30;;;1.10;;
19778;SDS011;10049;59.306;18.090;2023-11-19T06:51:15;1.10;;;1.00;;
19778;SDS011;10049;59.306;18.090;2023-11-19T06:53:44;0.90;;;0.90;;
19778;SDS011;10049;59.306;18.090;2023-11-19T06:56:18;3.47;;;1.00;;
19778;SDS011;10049;59.306;18.090;2023-11-19T06:58:46;1.10;;;1.00;;
19778;SDS011;10049;59.306;18.090;2023-11-19T07:01:14;0.90;;;0.90;;
19778;SDS011;10049;59.306;18.090;2023-11-19T07:03:43;3.17;;;1.00;;
19778;SDS011;10049;59.306;18.090;2023-11-19T07:06:13;1.07;;;0.97;;
19778;SDS011;10049;59.306;18.090;2023-11-19T07:08:40;1.40;;;1.30;;
19778;SDS011;10049;59.306;18.090;2023-11-19T07:11:09;1.40;;;1.10;;
19778;SDS011;10049;59.306;18.090;2023-11-19T07:13:37;1.07;;;0.97;;
19778;SDS011;10049;59.306;18.090;2023-11-19T07:16:05;1.30;;;1.10;;
19778;SDS011;10049;59.306;18.090;2023-11-19T07:18:35;2.30;;;1.17;;
19778;SDS011;10049;59.306;18.090;2023-11-19T07:21:04;1.60;;;1.20;;
19778;SDS011;10049;59.306;18.090;2023-11-19T07:23:34;1.23;;;1.13;;
19778;SDS011;10049;59.306;18.090;2023-11-19T07:26:04;0.93;;;0.90;;
19778;SDS011;10049;59.306;18.090;2023-11-19T07:28:45;1.63;;;1.10;;
19778;SDS011;10049;59.306;18.090;2023-11-19T07:31:13;1.50;;;1.20;;
19778;SDS011;10049;59.306;18.090;2023-11-19T07:33:40;1.47;;;1.23;;
19778;SDS011;10049;59.306;18.090;2023-11-19T07:36:08;2.57;;;1.20;;
19778;SDS011;10049;59.306;18.090;2023-11-19T07:38:38;1.40;;;1.30;;
19778;SDS011;10049;59.306;18.090;2023-11-19T07:41:05;1.20;;;1.10;;
19778;SDS011;10049;59.306;18.090;2023-11-19T07:43:35;1.70;;;1.23;;
19778;SDS011;10049;59.306;18.090;2023-11-19T07:46:02;1.20;;;1.10;;
19778;SDS011;10049;59.306;18.090;2023-11-19T07:48:30;1.67;;;1.03;;
19778;SDS011;10049;59.306;18.090;2023-11-19T07:50:57;1.10;;;1.00;;
19778;SDS011;10049;59.306;18.090;2023-11-19T07:53:25;1.27;;;1.10;;
19778;SDS011;10049;59.306;18.090;2023-11-19T07:55:54;1.93;;;1.13;;
19778;SDS011;10049;59.306;18.090;2023-11-19T07:58:24;1.90;;;1.40;;
19778;SDS011;10049;59.306;18.090;2023-11-19T08:00:53;1.23;;;1.13;;
19778;SDS011;10049;59.306;18.090;2023-11-19T08:03:21;4.70;;;1.13;;
19778;SDS011;10049;59.306;18.090;2023-11-19T08:05:48;1.50;;;1.20;;
19778;SDS011;10049;59.306;18.090;2023-11-19T08:08:16;1.30;;;1.20;;
19778;SDS011;10049;59.306;18.090;2023-11-19T08:10:44;1.37;;;1.20;;
19778;SDS011;10049;59.306;18.090;2023-11-19T08:13:17;2.80;;;1.00;;
19778;SDS011;10049;59.306;18.090;2023-11-19T08:15:47;1.70;;;1.20;;
19778;SDS011;10049;59.306;18.090;2023-11-19T08:18:16;1.40;;;1.07;;
19778;SDS011;10049;59.306;18.090;2023-11-19T08:20:43;3.13;;;1.10;;
19778;SDS011;10049;59.306;18.090;2023-11-19T08:23:14;1.53;;;1.23;;
19778;SDS011;10049;59.306;18.090;2023-11-19T08:25:41;1.93;;;1.20;;
19778;SDS011;10049;59.306;18.090;2023-11-19T08:28:10;1.20;;;1.10;;
19778;SDS011;10049;59.306;18.090;2023-11-19T08:30:39;4.70;;;1.00;;
19778;SDS011;10049;59.306;18.090;2023-11-19T08:33:09;1.50;;;1.00;;
19778;SDS011;10049;59.306;18.090;2023-11-19T08:35:37;0.90;;;0.90;;
19778;SDS011;10049;59.306;18.090;2023-11-19T08:38:04;1.33;;;1.07;;
19778;SDS011;10049;59.306;18.090;2023-11-19T08:40:32;1.23;;;1.10;;
19778;SDS011;10049;59.306;18.090;2023-11-19T08:43:00;1.40;;;0.90;;
19778;SDS011;10049;59.306;18.090;2023-11-19T08:45:27;1.10;;;0.90;;
19778;SDS011;10049;59.306;18.090;2023-11-19T08:47:58;1.20;;;1.10;;
19778;SDS011;10049;59.306;18.090;2023-11-19T08:50:25;1.13;;;1.03;;
19778;SDS011;10049;59.306;18.090;2023-11-19T08:52:53;1.20;;;1.00;;
19778;SDS011;10049;59.306;18.090;2023-11-19T08:55:21;1.73;;;1.20;;
19778;SDS011;10049;59.306;18.090;2023-11-19T08:57:48;1.73;;;0.90;;
19778;SDS011;10049;59.306;18.090;2023-11-19T09:00:16;4.47;;;1.10;;
19778;SDS011;10049;59.306;18.090;2023-11-19T09:02:44;1.27;;;1.00;;
19778;SDS011;10049;59.306;18.090;2023-11-19T09:05:13;1.53;;;1.23;;
19778;SDS011;10049;59.306;18.090;2023-11-19T09:07:42;1.30;;;0.93;;
19778;SDS011;10049;59.306;18.090;2023-11-19T09:10:09;1.47;;;1.20;;
19778;SDS011;10049;59.306;18.090;2023-11-19T09:12:39;1.30;;;1.07;;
19778;SDS011;10049;59.306;18.090;2023-11-19T09:15:07;1.50;;;1.10;;
19778;SDS011;10049;59.306;18.090;2023-11-19T09:17:35;1.60;;;1.10;;
19778;SDS011;10049;59.306;18.090;2023-11-19T09:20:03;2.57;;;1.20;;
19778;SDS011;10049;59.306;18.090;2023-11-19T09:22:39;1.50;;;0.97;;
19778;SDS011;10049;59.306;18.090;2023-11-19T09:25:07;4.10;;;1.20;;
19778;SDS011;10049;59.306;18.090;2023-11-19T09:27:34;1.20;;;1.10;;
19778;SDS011;10049;59.306;18.090;2023-11-19T09:30:02;1.10;;;1.00;;
19778;SDS011;10049;59.306;18.090;2023-11-19T09:32:30;1.40;;;1.07;;
19778;SDS011;10049;59.306;18.090;2023-11-19T09:34:57;1.30;;;1.10;;
19778;SDS011;10049;59.306;18.090;2023-11-19T09:37:25;0.50;;;0.50;;
19778;SDS011;10049;59.306;18.090;2023-11-19T09:39:55;1.60;;;0.53;;
19778;SDS011;10049;59.306;18.090;2023-11-19T09:42:23;0.70;;;0.70;;
19778;SDS011;10049;59.306;18.090;2023-11-19T09:44:52;0.97;;;0.87;;
19778;SDS011;10049;59.306;18.090;2023-11-19T09:47:20;1.03;;;0.70;;
19778;SDS011;10049;59.306;18.090;2023-11-19T09:49:48;0.90;;;0.90;;
19778;SDS011;10049;59.306;18.090;2023-11-19T09:52:17;1.03;;;0.80;;
19778;SDS011;10049;59.306;18.090;2023-11-19T09:54:45;2.73;;;0.70;;
19778;SDS011;10049;59.306;18.090;2023-11-19T09:57:16;0.53;;;0.53;;
19778;SDS011;10049;59.306;18.090;2023-11-19T09:59:46;0.90;;;0.80;;
19778;SDS011;10049;59.306;18.090;2023-11-19T10:02:14;0.53;;;0.53;;
19778;SDS011;10049;59.306;18.090;2023-11-19T10:04:42;0.20;;;0.20;;
19778;SDS011;10049;59.306;18.090;2023-11-19T10:07:10;0.90;;;0.57;;
19778;SDS011;10049;59.306;18.090;2023-11-19T10:09:38;0.60;;;0.60;;
19778;SDS011;10049;59.306;18.090;2023-11-19T10:12:05;0.67;;;0.67;;
19778;SDS011;10049;59.306;18.090;2023-11-19T10:14:34;0.37;;;0.37;;
19778;SDS011;10049;59.306;18.090;2023-11-19T10:17:07;0.37;;;0.37;;
19778;SDS011;10049;59.306;18.090;2023-11-19T10:19:35;0.57;;;0.57;;
19778;SDS011;10049;59.306;18.090;2023-11-19T10:22:07;0.40;;;0.40;;
19778;SDS011;10049;59.306;18.090;2023-11-19T10:24:35;0.60;;;0.53;;
19778;SDS011;10049;59.306;18.090;2023-11-19T10:27:07;0.30;;;0.30;;
19778;SDS011;10049;59.306;18.090;2023-11-19T10:29:37;0.60;;;0.60;;
19778;SDS011;10049;59.306;18.090;2023-11-19T10:32:05;0.50;;;0.50;;
19778;SDS011;10049;59.306;18.090;2023-11-19T10:34:33;0.50;;;0.50;;
19778;SDS011;10049;59.306;18.090;2023-11-19T10:37:04;1.53;;;1.03;;
19778;SDS011;10049;59.306;18.090;2023-11-19T10:39:33;0.43;;;0.43;;
19778;SDS011;10049;59.306;18.090;2023-11-19T10:42:19;1.00;;;0.80;;
19778;SDS011;10049;59.306;18.090;2023-11-19T10:44:49;0.50;;;0.50;;
19778;SDS011;10049;59.306;18.090;2023-11-19T10:47:18;0.40;;;0.40;;
19778;SDS011;10049;59.306;18.090;2023-11-19T10:49:47;0.70;;;0.70;;
19778;SDS011;10049;59.306;18.090;2023-11-19T10:52:17;0.90;;;0.80;;
19778;SDS011;10049;59.306;18.090;2023-11-19T10:54:47;0.43;;;0.43;;
19778;SDS011;10049;59.306;18.090;2023-11-19T10:57:18;0.50;;;0.50;;
19778;SDS011;10049;59.306;18.090;2023-11-19T10:59:49;1.13;;;0.87;;
19778;SDS011;10049;59.306;18.090;2023-11-19T11:02:18;0.63;;;0.60;;
19778;SDS011;10049;59.306;18.090;2023-11-19T11:04:47;0.57;;;0.57;;
19778;SDS011;10049;59.306;18.090;2023-11-19T11:07:16;0.70;;;0.70;;
19778;SDS011;10049;59.306;18.090;2023-11-19T11:09:47;1.23;;;0.40;;
19778;SDS011;10049;59.306;18.090;2023-11-19T11:12:17;0.40;;;0.40;;
19778;SDS011;10049;59.306;18.090;2023-11-19T11:14:45;1.00;;;0.90;;
19778;SDS011;10049;59.306;18.090;2023-11-19T11:17:16;0.93;;;0.63;;
19778;SDS011;10049;59.306;18.090;2023-11-19T11:19:46;0.50;;;0.50;;
19778;SDS011;10049;59.306;18.090;2023-11-19T11:22:14;0.67;;;0.67;;
19778;SDS011;10049;59.306;18.090;2023-11-19T11:24:54;0.80;;;0.80;;
19778;SDS011;10049;59.306;18.090;2023-11-19T11:27:36;0.70;;;0.70;;
19778;SDS011;10049;59.306;18.090;2023-11-19T11:30:11;0.57;;;0.57;;
19778;SDS011;10049;59.306;18.090;2023-11-19T11:32:45;0.50;;;0.50;;
19778;SDS011;10049;59.306;18.090;2023-11-19T11:35:30;0.50;;;0.50;;
19778;SDS011;10049;59.306;18.090;2023-11-19T11:38:03;0.40;;;0.40;;
19778;SDS011;10049;59.306;18.090;2023-11-19T11:40:31;0.80;;;0.70;;
19778;SDS011;10049;59.306;18.090;2023-11-19T11:42:59;0.30;;;0.30;;
19778;SDS011;10049;59.306;18.090;2023-11-19T11:45:36;0.87;;;0.87;;
19778;SDS011;10049;59.306;18.090;2023-11-19T11:48:16;0.63;;;0.50;;
19778;SDS011;10049;59.306;18.090;2023-11-19T11:50:49;0.87;;;0.57;;
19778;SDS011;10049;59.306;18.090;2023-11-19T11:53:16;0.70;;;0.70;;
19778;SDS011;10049;59.306;18.090;2023-11-19T11:55:57;0.40;;;0.40;;
19778;SDS011;10049;59.306;18.090;2023-11-19T11:58:35;0.97;;;0.70;;
19778;SDS011;10049;59.306;18.090;2023-11-19T12:01:04;1.30;;;0.87;;
19778;SDS011;10049;59.306;18.090;2023-11-19T12:03:34;0.40;;;0.40;;
19778;SDS011;10049;59.306;18.090;2023-11-19T12:06:02;1.13;;;0.60;;
19778;SDS011;10049;59.306;18.090;2023-11-19T12:08:30;0.63;;;0.57;;
19778;SDS011;10049;59.306;18.090;2023-11-19T12:11:01;0.30;;;0.30;;
19778;SDS011;10049;59.306;18.090;2023-11-19T12:13:44;1.47;;;0.70;;
19778;SDS011;10049;59.306;18.090;2023-11-19T12:16:13;0.63;;;0.57;;
19778;SDS011;10049;59.306;18.090;2023-11-19T12:18:43;0.80;;;0.67;;
19778;SDS011;10049;59.306;18.090;2023-11-19T12:21:11;0.80;;;0.70;;
19778;SDS011;10049;59.306;18.090;2023-11-19T12:23:45;1.10;;;0.67;;
19778;SDS011;10049;59.306;18.090;2023-11-19T12:26:30;0.60;;;0.60;;
19778;SDS011;10049;59.306;18.090;2023-11-19T12:28:59;1.10;;;0.67;;
19778;SDS011;10049;59.306;18.090;2023-11-19T12:31:29;1.53;;;0.83;;
19778;SDS011;10049;59.306;18.090;2023-11-19T12:33:58;0.60;;;0.60;;
19778;SDS011;10049;59.306;18.090;2023-11-19T12:36:26;2.87;;;0.90;;
19778;SDS011;10049;59.306;18.090;2023-11-19T12:38:54;0.70;;;0.50;;
19778;SDS011;10049;59.306;18.090;2023-11-19T12:41:24;1.30;;;1.00;;
19778;SDS011;10049;59.306;18.090;2023-11-19T12:43:52;0.80;;;0.80;;
19778;SDS011;10049;59.306;18.090;2023-11-19T12:46:20;0.70;;;0.70;;
19778;SDS011;10049;59.306;18.090;2023-11-19T12:48:48;0.67;;;0.67;;
19778;SDS011;10049;59.306;18.090;2023-11-19T12:51:18;0.40;;;0.40;;
19778;SDS011;10049;59.306;18.090;2023-11-19T12:53:50;0.57;;;0.57;;
19778;SDS011;10049;59.306;18.090;2023-11-19T12:56:19;0.43;;;0.43;;
19778;SDS011;10049;59.306;18.090;2023-11-19T12:58:47;0.70;;;0.70;;
19778;SDS011;10049;59.306;18.090;2023-11-19T13:01:16;0.70;;;0.60;;
19778;SDS011;10049;59.306;18.090;2023-11-19T13:03:44;0.80;;;0.53;;
19778;SDS011;10049;59.306;18.090;2023-11-19T13:06:15;1.10;;;0.70;;
19778;SDS011;10049;59.306;18.090;2023-11-19T13:08:48;0.93;;;0.67;;
19778;SDS011;10049;59.306;18.090;2023-11-19T13:11:29;0.67;;;0.67;;
19778;SDS011;10049;59.306;18.090;2023-11-19T13:13:57;1.13;;;0.77;;
19778;SDS011;10049;59.306;18.090;2023-11-19T13:16:25;1.37;;;1.07;;
19778;SDS011;10049;59.306;18.090;2023-11-19T13:18:53;1.00;;;0.90;;
19778;SDS011;10049;59.306;18.090;2023-11-19T13:21:20;0.90;;;0.60;;
19778;SDS011;10049;59.306;18.090;2023-11-19T13:23:49;2.37;;;0.80;;
19778;SDS011;10049;59.306;18.090;2023-11-19T13:26:18;0.60;;;0.53;;
19778;SDS011;10049;59.306;18.090;2023-11-19T13:28:47;0.80;;;0.70;;
19778;SDS011;10049;59.306;18.090;2023-11-19T13:31:14;0.60;;;0.60;;
19778;SDS011;10049;59.306;18.090;2023-11-19T13:33:42;0.70;;;0.70;;
19778;SDS011;10049;59.306;18.090;2023-11-19T13:36:10;0.57;;;0.50;;
19778;SDS011;10049;59.306;18.090;2023-11-19T13:38:38;0.67;;;0.60;;
19778;SDS011;10049;59.306;18.090;2023-11-19T13:41:09;1.10;;;0.60;;
19778;SDS011;10049;59.306;18.090;2023-11-19T13:43:37;0.50;;;0.50;;
19778;SDS011;10049;59.306;18.090;2023-11-19T13:46:06;1.10;;;0.70;;
19778;SDS011;10049;59.306;18.090;2023-11-19T13:48:35;0.47;;;0.47;;
19778;SDS011;10049;59.306;18.090;2023-11-19T13:51:03;0.90;;;0.73;;
19778;SDS011;10049;59.306;18.090;2023-11-19T13:53:31;0.90;;;0.80;;
19778;SDS011;10049;59.306;18.090;2023-11-19T13:55:58;0.50;;;0.50;;
19778;SDS011;10049;59.306;18.090;2023-11-19T13:58:28;0.60;;;0.60;;
19778;SDS011;10049;59.306;18.090;2023-11-19T14:00:56;0.83;;;0.70;;
19778;SDS011;10049;59.306;18.090;2023-11-19T14:03:24;1.03;;;0.60;;
19778;SDS011;10049;59.306;18.090;2023-11-19T14:05:52;1.10;;;0.67;;
19778;SDS011;10049;59.306;18.090;2023-11-19T14:08:20;0.70;;;0.70;;
19778;SDS011;10049;59.306;18.090;2023-11-19T14:10:48;0.70;;;0.60;;
19778;SDS011;10049;59.306;18.090;2023-11-19T14:13:17;1.67;;;0.93;;
19778;SDS011;10049;59.306;18.090;2023-11-19T14:15:46;0.50;;;0.50;;
19778;SDS011;10049;59.306;18.090;2023-11-19T14:18:14;0.60;;;0.60;;
19778;SDS011;10049;59.306;18.090;2023-11-19T14:20:41;0.73;;;0.67;;
19778;SDS011;10049;59.306;18.090;2023-11-19T14:23:09;0.50;;;0.50;;
19778;SDS011;10049;59.306;18.090;2023-11-19T14:25:37;0.80;;;0.80;;
19778;SDS011;10049;59.306;18.090;2023-11-19T14:28:04;0.97;;;0.70;;
19778;SDS011;10049;59.306;18.090;2023-11-19T14:30:32;0.57;;;0.57;;
19778;SDS011;10049;59.306;18.090;2023-11-19T14:33:02;0.60;;;0.60;;
19778;SDS011;10049;59.306;18.090;2023-11-19T14:35:30;0.57;;;0.57;;
19778;SDS011;10049;59.306;18.090;2023-11-19T14:38:00;0.50;;;0.50;;
19778;SDS011;10049;59.306;18.090;2023-11-19T14:40:30;0.73;;;0.57;;
19778;SDS011;10049;59.306;18.090;2023-11-19T14:42:57;1.00;;;0.80;;
19778;SDS011;10049;59.306;18.090;2023-11-19T14:45:26;1.00;;;0.90;;